»·PEaware :: N2842Y KBUR-KFUL

N2842Y :: KBUR-KFUL

FLIGHT INFORMATION

Flight Status: Arrived
Operator: Privately registered:
United States
More flights under this callsign
Pilot: Cody B. (17747)
Aircraft: CESSNA 172 SKYHAWK
(C172)
More flights by this aircraft type
Origin: KBUR Bob Hope-Burbank
United States
Destination: KFUL Fullerton Mun
United States
More flights between these airports :: More routes between these airports
Route: +KEMT
File this flight plan on PilotEdge
Remarks:
Altitude:
(Current/Filed)
5,500ft
Speed:
(Current/Filed)
120kts
Departed: 15-Jun-18 05:42 PM
Arrived: 15-Jun-18 06:03 PM
Distance/Time
Traveled:
27nm/0:21
Distance/Time
To Go:
Arrived

Flight Plot

Page will automatically refresh every two minutes.


Map Options




Map Legend


Flown Route
Filed Route
Departure Airport
Arrival Airport
Navaid (VOR, NDB)
Fix

Horizontal Profiles

Position Reports

Time Latitude Longitude Heading Altitude Ground
Speed
15-Jun-18 17:13 34.195804 -118.358175 351 707ft 0kts
15-Jun-18 17:14 34.195804 -118.358175 351 707ft 0kts
15-Jun-18 17:15 34.195804 -118.358175 351 707ft 0kts
15-Jun-18 17:16 34.195804 -118.358175 351 707ft 0kts
15-Jun-18 17:17 34.195804 -118.358175 351 707ft 0kts
15-Jun-18 17:18 34.195804 -118.358175 351 707ft 0kts
15-Jun-18 17:19 34.195804 -118.358175 351 707ft 0kts
15-Jun-18 17:20 34.195804 -118.358175 351 707ft 0kts
15-Jun-18 17:21 34.195804 -118.358175 351 707ft 0kts
15-Jun-18 17:22 34.195804 -118.358175 351 707ft 0kts
15-Jun-18 17:23 34.195804 -118.358175 351 707ft 0kts
15-Jun-18 17:24 34.195804 -118.358175 351 707ft 0kts
15-Jun-18 17:25 34.195804 -118.358175 351 707ft 0kts
15-Jun-18 17:26 34.195804 -118.358175 351 707ft 0kts
15-Jun-18 17:27 34.195804 -118.358175 351 707ft 0kts
15-Jun-18 17:28 34.195804 -118.358175 351 707ft 0kts
15-Jun-18 17:29 34.195804 -118.358175 351 707ft 0kts
15-Jun-18 17:30 34.195804 -118.358175 351 707ft 0kts
15-Jun-18 17:31 34.195804 -118.358175 351 707ft 0kts
15-Jun-18 17:32 34.195804 -118.358175 351 707ft 0kts
15-Jun-18 17:33 34.195804 -118.358175 351 707ft 0kts
15-Jun-18 17:34 34.195804 -118.358175 351 707ft 0kts
15-Jun-18 17:35 34.195804 -118.358175 351 707ft 0kts
15-Jun-18 17:36 34.196090 -118.358329 328 708ft 3kts
15-Jun-18 17:37 34.196815 -118.359794 272 712ft 7kts
15-Jun-18 17:38 34.196856 -118.362776 268 716ft 12kts
15-Jun-18 17:39 34.196927 -118.367424 269 723ft 14kts
15-Jun-18 17:40 34.197126 -118.369056 339 724ft 0kts
15-Jun-18 17:41 34.197468 -118.369132 4 725ft 6kts
15-Jun-18 17:42 34.197813 -118.355835 98 814ft 85kts
15-Jun-18 17:43 34.192605 -118.329493 123 1468ft 85kts
15-Jun-18 17:44 34.181003 -118.302509 122 1813ft 84kts
15-Jun-18 17:45 34.171176 -118.277268 124 2175ft 80kts
15-Jun-18 17:46 34.162506 -118.250381 118 2429ft 86kts
15-Jun-18 17:47 34.153655 -118.225210 120 2924ft 80kts
15-Jun-18 17:48 34.144175 -118.198790 118 3330ft 94kts
15-Jun-18 17:49 34.133079 -118.167288 118 3497ft 113kts
15-Jun-18 17:50 34.120001 -118.130389 118 3487ft 123kts
15-Jun-18 17:51 34.106990 -118.093778 119 3477ft 116kts
15-Jun-18 17:52 34.094405 -118.058403 119 3477ft 115kts
15-Jun-18 17:53 34.074784 -118.033258 167 3477ft 106kts
15-Jun-18 17:54 34.046579 -118.024852 170 3477ft 105kts
15-Jun-18 17:55 34.019611 -118.017823 171 3033ft 94kts
15-Jun-18 17:56 33.994382 -118.011326 171 2525ft 92kts
15-Jun-18 17:57 33.969576 -118.004942 170 2016ft 91kts
15-Jun-18 17:58 33.945020 -117.997950 151 1505ft 94kts
15-Jun-18 17:59 33.923978 -117.980396 157 1139ft 81kts
15-Jun-18 18:00 33.907265 -117.969593 155 1160ft 57kts
15-Jun-18 18:01 33.890964 -117.963265 170 1161ft 66kts
15-Jun-18 18:02 33.875785 -117.963560 233 532ft 61kts
15-Jun-18 18:03 33.872079 -117.979343 203 92ft 9kts
15-Jun-18 18:04 33.871477 -117.980423 259 92ft 12kts
15-Jun-18 18:05 33.870675 -117.983343 271 90ft 2kts

Navigation Log

Ident Type
1. KBUR Airport
2. Navaid
3. KFUL Airport